sensor_id;sensor_type;location;lat;lon;timestamp;P1;durP1;ratioP1;P2;durP2;ratioP2
31347;SDS011;21711;49.708;18.568;2023-05-10T00:01:50;1.63;;;0.98;;
31347;SDS011;21711;49.708;18.568;2023-05-10T00:04:18;3.30;;;0.80;;
31347;SDS011;21711;49.708;18.568;2023-05-10T00:06:45;1.80;;;0.93;;
31347;SDS011;21711;49.708;18.568;2023-05-10T00:09:13;3.72;;;1.13;;
31347;SDS011;21711;49.708;18.568;2023-05-10T00:11:40;2.13;;;1.05;;
31347;SDS011;21711;49.708;18.568;2023-05-10T00:14:08;1.40;;;1.02;;
31347;SDS011;21711;49.708;18.568;2023-05-10T00:16:35;3.20;;;1.13;;
31347;SDS011;21711;49.708;18.568;2023-05-10T00:19:03;2.65;;;1.17;;
31347;SDS011;21711;49.708;18.568;2023-05-10T00:21:30;2.65;;;1.10;;
31347;SDS011;21711;49.708;18.568;2023-05-10T00:23:58;3.15;;;1.10;;
31347;SDS011;21711;49.708;18.568;2023-05-10T00:26:26;3.45;;;1.30;;
31347;SDS011;21711;49.708;18.568;2023-05-10T00:28:55;2.10;;;1.65;;
31347;SDS011;21711;49.708;18.568;2023-05-10T00:31:23;2.75;;;0.90;;
31347;SDS011;21711;49.708;18.568;2023-05-10T00:33:50;2.00;;;1.10;;
31347;SDS011;21711;49.708;18.568;2023-05-10T00:36:17;2.38;;;1.02;;
31347;SDS011;21711;49.708;18.568;2023-05-10T00:38:45;2.42;;;1.17;;
31347;SDS011;21711;49.708;18.568;2023-05-10T00:41:12;1.80;;;1.10;;
31347;SDS011;21711;49.708;18.568;2023-05-10T00:43:40;3.53;;;1.23;;
31347;SDS011;21711;49.708;18.568;2023-05-10T00:46:07;1.40;;;0.95;;
31347;SDS011;21711;49.708;18.568;2023-05-10T00:48:35;2.90;;;1.10;;
31347;SDS011;21711;49.708;18.568;2023-05-10T00:51:02;1.95;;;0.82;;
31347;SDS011;21711;49.708;18.568;2023-05-10T00:53:31;3.97;;;1.10;;
31347;SDS011;21711;49.708;18.568;2023-05-10T00:55:59;2.35;;;0.90;;
31347;SDS011;21711;49.708;18.568;2023-05-10T00:58:27;2.25;;;1.30;;
31347;SDS011;21711;49.708;18.568;2023-05-10T01:00:57;1.38;;;0.88;;
31347;SDS011;21711;49.708;18.568;2023-05-10T01:03:25;3.13;;;1.10;;
31347;SDS011;21711;49.708;18.568;2023-05-10T01:05:54;2.30;;;1.13;;
31347;SDS011;21711;49.708;18.568;2023-05-10T01:08:21;2.53;;;0.98;;
31347;SDS011;21711;49.708;18.568;2023-05-10T01:10:49;2.47;;;0.90;;
31347;SDS011;21711;49.708;18.568;2023-05-10T01:13:30;2.78;;;1.10;;
31347;SDS011;21711;49.708;18.568;2023-05-10T01:16:01;1.55;;;0.95;;
31347;SDS011;21711;49.708;18.568;2023-05-10T01:18:30;2.25;;;1.17;;
31347;SDS011;21711;49.708;18.568;2023-05-10T01:24:18;3.53;;;0.90;;
31347;SDS011;21711;49.708;18.568;2023-05-10T01:27:36;2.75;;;0.88;;
31347;SDS011;21711;49.708;18.568;2023-05-10T01:33:30;1.42;;;0.98;;
31347;SDS011;21711;49.708;18.568;2023-05-10T01:36:08;2.42;;;1.17;;
31347;SDS011;21711;49.708;18.568;2023-05-10T01:41:52;2.03;;;1.15;;
31347;SDS011;21711;49.708;18.568;2023-05-10T01:47:31;3.85;;;1.20;;
31347;SDS011;21711;49.708;18.568;2023-05-10T01:50:42;3.20;;;1.00;;
31347;SDS011;21711;49.708;18.568;2023-05-10T01:53:06;3.25;;;1.58;;
31347;SDS011;21711;49.708;18.568;2023-05-10T01:55:41;2.13;;;1.05;;
31347;SDS011;21711;49.708;18.568;2023-05-10T01:58:17;1.90;;;0.95;;
31347;SDS011;21711;49.708;18.568;2023-05-10T02:00:58;2.10;;;1.20;;
31347;SDS011;21711;49.708;18.568;2023-05-10T02:03:29;2.53;;;0.90;;
31347;SDS011;21711;49.708;18.568;2023-05-10T02:05:58;4.25;;;1.42;;
31347;SDS011;21711;49.708;18.568;2023-05-10T02:08:26;6.65;;;1.85;;
31347;SDS011;21711;49.708;18.568;2023-05-10T02:10:56;2.47;;;1.33;;
31347;SDS011;21711;49.708;18.568;2023-05-10T02:13:26;5.60;;;1.27;;
31347;SDS011;21711;49.708;18.568;2023-05-10T02:15:56;1.77;;;1.13;;
31347;SDS011;21711;49.708;18.568;2023-05-10T02:18:24;4.03;;;1.10;;
31347;SDS011;21711;49.708;18.568;2023-05-10T02:20:54;4.15;;;1.70;;
31347;SDS011;21711;49.708;18.568;2023-05-10T02:23:23;3.42;;;1.50;;
31347;SDS011;21711;49.708;18.568;2023-05-10T02:25:52;1.83;;;1.30;;
31347;SDS011;21711;49.708;18.568;2023-05-10T02:28:21;3.00;;;1.73;;
31347;SDS011;21711;49.708;18.568;2023-05-10T02:30:52;3.25;;;1.35;;
31347;SDS011;21711;49.708;18.568;2023-05-10T02:33:20;4.38;;;1.33;;
31347;SDS011;21711;49.708;18.568;2023-05-10T02:35:49;5.18;;;1.95;;
31347;SDS011;21711;49.708;18.568;2023-05-10T02:38:18;2.42;;;1.30;;
31347;SDS011;21711;49.708;18.568;2023-05-10T02:40:49;2.47;;;1.08;;
31347;SDS011;21711;49.708;18.568;2023-05-10T02:43:17;4.15;;;1.60;;
31347;SDS011;21711;49.708;18.568;2023-05-10T02:45:47;2.00;;;1.00;;
31347;SDS011;21711;49.708;18.568;2023-05-10T02:48:15;3.45;;;1.83;;
31347;SDS011;21711;49.708;18.568;2023-05-10T02:50:43;2.83;;;1.30;;
31347;SDS011;21711;49.708;18.568;2023-05-10T02:53:15;4.35;;;1.20;;
31347;SDS011;21711;49.708;18.568;2023-05-10T02:55:54;4.40;;;1.63;;
31347;SDS011;21711;49.708;18.568;2023-05-10T02:58:25;4.60;;;1.42;;
31347;SDS011;21711;49.708;18.568;2023-05-10T03:00:52;2.10;;;1.13;;
31347;SDS011;21711;49.708;18.568;2023-05-10T03:03:20;2.72;;;1.30;;
31347;SDS011;21711;49.708;18.568;2023-05-10T03:05:49;1.90;;;1.38;;
31347;SDS011;21711;49.708;18.568;2023-05-10T03:08:16;2.78;;;1.48;;
31347;SDS011;21711;49.708;18.568;2023-05-10T03:17:29;2.50;;;1.70;;
31347;SDS011;21711;49.708;18.568;2023-05-10T03:20:26;2.20;;;1.38;;
31347;SDS011;21711;49.708;18.568;2023-05-10T03:23:09;3.17;;;1.50;;
31347;SDS011;21711;49.708;18.568;2023-05-10T03:25:49;4.40;;;1.38;;
31347;SDS011;21711;49.708;18.568;2023-05-10T03:28:17;3.85;;;1.77;;
31347;SDS011;21711;49.708;18.568;2023-05-10T03:30:46;3.10;;;1.42;;
31347;SDS011;21711;49.708;18.568;2023-05-10T03:33:15;6.38;;;1.48;;
31347;SDS011;21711;49.708;18.568;2023-05-10T03:35:45;3.67;;;1.58;;
31347;SDS011;21711;49.708;18.568;2023-05-10T03:38:13;2.00;;;1.25;;
31347;SDS011;21711;49.708;18.568;2023-05-10T03:40:40;5.20;;;1.35;;
31347;SDS011;21711;49.708;18.568;2023-05-10T03:43:08;4.45;;;1.23;;
31347;SDS011;21711;49.708;18.568;2023-05-10T03:45:35;2.83;;;1.48;;
31347;SDS011;21711;49.708;18.568;2023-05-10T03:48:03;3.40;;;1.55;;
31347;SDS011;21711;49.708;18.568;2023-05-10T03:50:31;3.30;;;1.20;;
31347;SDS011;21711;49.708;18.568;2023-05-10T03:52:58;3.53;;;1.95;;
31347;SDS011;21711;49.708;18.568;2023-05-10T03:55:27;4.95;;;1.85;;
31347;SDS011;21711;49.708;18.568;2023-05-10T03:57:55;3.28;;;1.30;;
31347;SDS011;21711;49.708;18.568;2023-05-10T04:00:23;5.63;;;2.00;;
31347;SDS011;21711;49.708;18.568;2023-05-10T04:02:53;4.72;;;2.00;;
31347;SDS011;21711;49.708;18.568;2023-05-10T04:05:21;2.92;;;1.30;;
31347;SDS011;21711;49.708;18.568;2023-05-10T04:07:51;9.07;;;1.73;;
31347;SDS011;21711;49.708;18.568;2023-05-10T04:10:19;4.50;;;1.38;;
31347;SDS011;21711;49.708;18.568;2023-05-10T04:12:47;2.75;;;1.50;;
31347;SDS011;21711;49.708;18.568;2023-05-10T04:15:14;5.43;;;1.83;;
31347;SDS011;21711;49.708;18.568;2023-05-10T04:17:42;5.55;;;1.70;;
31347;SDS011;21711;49.708;18.568;2023-05-10T04:20:09;2.47;;;1.33;;
31347;SDS011;21711;49.708;18.568;2023-05-10T04:22:38;3.33;;;2.13;;
31347;SDS011;21711;49.708;18.568;2023-05-10T04:25:05;3.92;;;2.13;;
31347;SDS011;21711;49.708;18.568;2023-05-10T04:27:33;4.05;;;1.98;;
31347;SDS011;21711;49.708;18.568;2023-05-10T04:30:00;1.88;;;1.27;;
31347;SDS011;21711;49.708;18.568;2023-05-10T04:32:28;3.92;;;1.35;;
31347;SDS011;21711;49.708;18.568;2023-05-10T04:34:58;2.33;;;1.27;;
31347;SDS011;21711;49.708;18.568;2023-05-10T04:37:25;2.70;;;1.73;;
31347;SDS011;21711;49.708;18.568;2023-05-10T04:39:52;3.80;;;1.88;;
31347;SDS011;21711;49.708;18.568;2023-05-10T04:42:20;3.33;;;1.40;;
31347;SDS011;21711;49.708;18.568;2023-05-10T04:44:47;2.33;;;1.30;;
31347;SDS011;21711;49.708;18.568;2023-05-10T04:47:14;4.55;;;2.40;;
31347;SDS011;21711;49.708;18.568;2023-05-10T04:49:42;2.70;;;1.63;;
31347;SDS011;21711;49.708;18.568;2023-05-10T04:52:09;3.47;;;1.73;;
31347;SDS011;21711;49.708;18.568;2023-05-10T04:54:37;5.45;;;1.55;;
31347;SDS011;21711;49.708;18.568;2023-05-10T04:57:05;6.15;;;1.88;;
31347;SDS011;21711;49.708;18.568;2023-05-10T04:59:32;5.68;;;1.40;;
31347;SDS011;21711;49.708;18.568;2023-05-10T05:02:02;1.97;;;1.37;;
31347;SDS011;21711;49.708;18.568;2023-05-10T05:04:29;2.72;;;1.23;;
31347;SDS011;21711;49.708;18.568;2023-05-10T05:06:57;2.72;;;1.33;;
31347;SDS011;21711;49.708;18.568;2023-05-10T05:09:24;2.50;;;1.42;;
31347;SDS011;21711;49.708;18.568;2023-05-10T05:11:52;2.72;;;1.42;;
31347;SDS011;21711;49.708;18.568;2023-05-10T05:14:19;4.68;;;1.55;;
31347;SDS011;21711;49.708;18.568;2023-05-10T05:16:51;2.60;;;1.40;;
31347;SDS011;21711;49.708;18.568;2023-05-10T05:19:19;3.42;;;1.85;;
31347;SDS011;21711;49.708;18.568;2023-05-10T05:21:47;4.70;;;1.85;;
31347;SDS011;21711;49.708;18.568;2023-05-10T05:24:14;2.88;;;1.65;;
31347;SDS011;21711;49.708;18.568;2023-05-10T05:26:41;3.63;;;1.42;;
31347;SDS011;21711;49.708;18.568;2023-05-10T05:29:08;2.67;;;1.70;;
31347;SDS011;21711;49.708;18.568;2023-05-10T05:31:36;3.13;;;1.35;;
31347;SDS011;21711;49.708;18.568;2023-05-10T05:34:03;3.17;;;1.60;;
31347;SDS011;21711;49.708;18.568;2023-05-10T05:36:30;3.47;;;2.00;;
31347;SDS011;21711;49.708;18.568;2023-05-10T05:38:58;3.38;;;1.70;;
31347;SDS011;21711;49.708;18.568;2023-05-10T05:41:25;5.63;;;1.80;;
31347;SDS011;21711;49.708;18.568;2023-05-10T05:43:52;5.63;;;2.35;;
31347;SDS011;21711;49.708;18.568;2023-05-10T05:46:19;2.90;;;1.60;;
31347;SDS011;21711;49.708;18.568;2023-05-10T05:48:47;2.10;;;1.27;;
31347;SDS011;21711;49.708;18.568;2023-05-10T05:51:14;3.92;;;1.70;;
31347;SDS011;21711;49.708;18.568;2023-05-10T05:53:41;4.88;;;1.67;;
31347;SDS011;21711;49.708;18.568;2023-05-10T05:56:08;2.17;;;1.42;;
31347;SDS011;21711;49.708;18.568;2023-05-10T05:58:36;3.10;;;1.60;;
31347;SDS011;21711;49.708;18.568;2023-05-10T06:01:03;3.45;;;1.73;;
31347;SDS011;21711;49.708;18.568;2023-05-10T06:03:31;2.53;;;1.67;;
31347;SDS011;21711;49.708;18.568;2023-05-10T06:05:59;4.40;;;1.40;;
31347;SDS011;21711;49.708;18.568;2023-05-10T06:08:26;2.72;;;1.83;;
31347;SDS011;21711;49.708;18.568;2023-05-10T06:10:53;2.10;;;1.63;;
31347;SDS011;21711;49.708;18.568;2023-05-10T06:13:20;3.55;;;1.80;;
31347;SDS011;21711;49.708;18.568;2023-05-10T06:15:48;2.40;;;1.50;;
31347;SDS011;21711;49.708;18.568;2023-05-10T06:18:15;9.02;;;2.20;;
31347;SDS011;21711;49.708;18.568;2023-05-10T06:20:42;4.25;;;2.03;;
31347;SDS011;21711;49.708;18.568;2023-05-10T06:23:10;6.38;;;1.85;;
31347;SDS011;21711;49.708;18.568;2023-05-10T06:25:37;4.65;;;2.03;;
31347;SDS011;21711;49.708;18.568;2023-05-10T06:28:05;2.10;;;1.65;;
31347;SDS011;21711;49.708;18.568;2023-05-10T06:30:32;2.95;;;2.05;;
31347;SDS011;21711;49.708;18.568;2023-05-10T06:32:59;4.88;;;1.88;;
31347;SDS011;21711;49.708;18.568;2023-05-10T06:35:27;5.95;;;1.73;;
31347;SDS011;21711;49.708;18.568;2023-05-10T06:37:55;2.40;;;1.80;;
31347;SDS011;21711;49.708;18.568;2023-05-10T06:40:22;4.35;;;1.88;;
31347;SDS011;21711;49.708;18.568;2023-05-10T06:42:49;2.67;;;2.00;;
31347;SDS011;21711;49.708;18.568;2023-05-10T06:45:17;4.28;;;1.60;;
31347;SDS011;21711;49.708;18.568;2023-05-10T06:47:45;4.80;;;2.20;;
31347;SDS011;21711;49.708;18.568;2023-05-10T06:50:12;2.13;;;1.92;;
31347;SDS011;21711;49.708;18.568;2023-05-10T06:52:40;5.35;;;2.05;;
31347;SDS011;21711;49.708;18.568;2023-05-10T06:55:07;3.40;;;1.75;;
31347;SDS011;21711;49.708;18.568;2023-05-10T06:57:35;2.42;;;2.00;;
31347;SDS011;21711;49.708;18.568;2023-05-10T07:00:03;3.80;;;1.65;;
31347;SDS011;21711;49.708;18.568;2023-05-10T07:02:31;2.72;;;1.70;;
31347;SDS011;21711;49.708;18.568;2023-05-10T07:04:59;2.83;;;2.00;;
31347;SDS011;21711;49.708;18.568;2023-05-10T07:07:28;1.90;;;1.58;;
31347;SDS011;21711;49.708;18.568;2023-05-10T07:09:56;2.83;;;1.88;;
31347;SDS011;21711;49.708;18.568;2023-05-10T07:12:24;1.83;;;1.70;;
31347;SDS011;21711;49.708;18.568;2023-05-10T07:14:51;5.85;;;1.88;;
31347;SDS011;21711;49.708;18.568;2023-05-10T07:17:19;3.30;;;1.90;;
31347;SDS011;21711;49.708;18.568;2023-05-10T07:19:46;2.20;;;1.77;;
31347;SDS011;21711;49.708;18.568;2023-05-10T07:22:16;2.95;;;1.92;;
31347;SDS011;21711;49.708;18.568;2023-05-10T07:24:44;6.20;;;1.88;;
31347;SDS011;21711;49.708;18.568;2023-05-10T07:27:11;5.07;;;2.17;;
31347;SDS011;21711;49.708;18.568;2023-05-10T07:29:39;2.95;;;2.00;;
31347;SDS011;21711;49.708;18.568;2023-05-10T07:32:06;1.70;;;1.60;;
31347;SDS011;21711;49.708;18.568;2023-05-10T07:34:33;1.70;;;1.60;;
31347;SDS011;21711;49.708;18.568;2023-05-10T07:37:01;3.78;;;1.80;;
31347;SDS011;21711;49.708;18.568;2023-05-10T07:39:28;2.53;;;1.77;;
31347;SDS011;21711;49.708;18.568;2023-05-10T07:41:56;3.40;;;1.75;;
31347;SDS011;21711;49.708;18.568;2023-05-10T07:44:23;2.83;;;1.88;;
31347;SDS011;21711;49.708;18.568;2023-05-10T07:46:50;2.17;;;1.60;;
31347;SDS011;21711;49.708;18.568;2023-05-10T07:49:18;2.22;;;1.92;;
31347;SDS011;21711;49.708;18.568;2023-05-10T07:51:45;3.10;;;1.70;;
31347;SDS011;21711;49.708;18.568;2023-05-10T07:54:13;2.10;;;1.80;;
31347;SDS011;21711;49.708;18.568;2023-05-10T07:56:41;2.92;;;1.48;;
31347;SDS011;21711;49.708;18.568;2023-05-10T07:59:15;4.78;;;1.80;;
31347;SDS011;21711;49.708;18.568;2023-05-10T08:01:43;2.90;;;1.58;;
31347;SDS011;21711;49.708;18.568;2023-05-10T08:04:11;2.55;;;1.80;;
31347;SDS011;21711;49.708;18.568;2023-05-10T08:06:39;4.93;;;1.73;;
31347;SDS011;21711;49.708;18.568;2023-05-10T08:09:07;2.70;;;2.00;;
31347;SDS011;21711;49.708;18.568;2023-05-10T08:11:35;2.80;;;2.00;;
31347;SDS011;21711;49.708;18.568;2023-05-10T08:14:02;2.03;;;1.40;;
31347;SDS011;21711;49.708;18.568;2023-05-10T08:16:29;2.22;;;1.75;;
31347;SDS011;21711;49.708;18.568;2023-05-10T08:18:57;1.90;;;1.35;;
31347;SDS011;21711;49.708;18.568;2023-05-10T08:21:24;2.00;;;1.63;;
31347;SDS011;21711;49.708;18.568;2023-05-10T08:23:52;1.92;;;1.65;;
31347;SDS011;21711;49.708;18.568;2023-05-10T08:26:20;1.95;;;1.70;;
31347;SDS011;21711;49.708;18.568;2023-05-10T08:28:48;2.65;;;1.63;;
31347;SDS011;21711;49.708;18.568;2023-05-10T08:31:15;3.08;;;1.65;;
31347;SDS011;21711;49.708;18.568;2023-05-10T08:33:42;2.33;;;1.75;;
31347;SDS011;21711;49.708;18.568;2023-05-10T08:36:10;1.60;;;1.50;;
31347;SDS011;21711;49.708;18.568;2023-05-10T08:38:40;3.03;;;1.75;;
31347;SDS011;21711;49.708;18.568;2023-05-10T08:41:07;2.50;;;1.80;;
31347;SDS011;21711;49.708;18.568;2023-05-10T08:43:36;2.13;;;1.93;;
31347;SDS011;21711;49.708;18.568;2023-05-10T08:46:05;1.83;;;1.60;;
31347;SDS011;21711;49.708;18.568;2023-05-10T08:48:35;9.77;;;2.08;;
31347;SDS011;21711;49.708;18.568;2023-05-10T08:51:03;1.73;;;1.27;;
31347;SDS011;21711;49.708;18.568;2023-05-10T08:53:32;2.40;;;1.75;;
31347;SDS011;21711;49.708;18.568;2023-05-10T08:56:02;4.15;;;1.50;;
31347;SDS011;21711;49.708;18.568;2023-05-10T08:58:30;2.83;;;1.80;;
31347;SDS011;21711;49.708;18.568;2023-05-10T09:00:59;3.78;;;1.65;;
31347;SDS011;21711;49.708;18.568;2023-05-10T09:03:27;1.40;;;1.30;;
31347;SDS011;21711;49.708;18.568;2023-05-10T09:05:54;1.58;;;1.40;;
31347;SDS011;21711;49.708;18.568;2023-05-10T09:08:25;3.10;;;1.52;;
31347;SDS011;21711;49.708;18.568;2023-05-10T09:10:54;1.70;;;1.60;;
31347;SDS011;21711;49.708;18.568;2023-05-10T09:13:22;3.00;;;1.60;;
31347;SDS011;21711;49.708;18.568;2023-05-10T09:18:19;2.20;;;1.45;;
31347;SDS011;21711;49.708;18.568;2023-05-10T09:20:48;3.15;;;1.77;;
31347;SDS011;21711;49.708;18.568;2023-05-10T09:23:15;1.60;;;1.50;;
31347;SDS011;21711;49.708;18.568;2023-05-10T09:25:43;1.83;;;1.70;;
31347;SDS011;21711;49.708;18.568;2023-05-10T09:28:10;2.05;;;1.27;;
31347;SDS011;21711;49.708;18.568;2023-05-10T09:30:38;3.05;;;1.50;;
31347;SDS011;21711;49.708;18.568;2023-05-10T09:33:06;2.15;;;1.60;;
31347;SDS011;21711;49.708;18.568;2023-05-10T09:35:33;2.10;;;1.63;;
31347;SDS011;21711;49.708;18.568;2023-05-10T09:38:02;2.28;;;1.65;;
31347;SDS011;21711;49.708;18.568;2023-05-10T09:40:31;2.03;;;1.77;;
31347;SDS011;21711;49.708;18.568;2023-05-10T09:43:08;2.95;;;1.40;;
31347;SDS011;21711;49.708;18.568;2023-05-10T09:45:37;3.30;;;1.20;;
31347;SDS011;21711;49.708;18.568;2023-05-10T09:48:09;3.60;;;1.65;;
31347;SDS011;21711;49.708;18.568;2023-05-10T09:50:36;1.65;;;1.45;;
31347;SDS011;21711;49.708;18.568;2023-05-10T09:53:04;5.35;;;1.70;;
31347;SDS011;21711;49.708;18.568;2023-05-10T09:55:44;3.25;;;1.30;;
31347;SDS011;21711;49.708;18.568;2023-05-10T09:58:13;2.03;;;1.50;;
31347;SDS011;21711;49.708;18.568;2023-05-10T10:00:42;4.20;;;1.50;;
31347;SDS011;21711;49.708;18.568;2023-05-10T10:03:17;2.15;;;1.40;;
31347;SDS011;21711;49.708;18.568;2023-05-10T10:05:47;3.90;;;1.30;;
31347;SDS011;21711;49.708;18.568;2023-05-10T10:08:15;2.97;;;1.50;;
31347;SDS011;21711;49.708;18.568;2023-05-10T10:10:44;6.85;;;1.63;;
31347;SDS011;21711;49.708;18.568;2023-05-10T10:13:13;2.22;;;1.83;;
31347;SDS011;21711;49.708;18.568;2023-05-10T10:15:41;3.72;;;1.65;;
31347;SDS011;21711;49.708;18.568;2023-05-10T10:18:13;1.67;;;1.30;;
31347;SDS011;21711;49.708;18.568;2023-05-10T10:20:42;10.43;;;7.45;;
31347;SDS011;21711;49.708;18.568;2023-05-10T10:23:09;11.30;;;8.88;;
31347;SDS011;21711;49.708;18.568;2023-05-10T10:25:37;6.43;;;5.35;;
31347;SDS011;21711;49.708;18.568;2023-05-10T10:28:10;3.22;;;1.65;;
31347;SDS011;21711;49.708;18.568;2023-05-10T10:31:17;5.20;;;1.83;;
31347;SDS011;21711;49.708;18.568;2023-05-10T10:33:54;3.47;;;1.85;;
31347;SDS011;21711;49.708;18.568;2023-05-10T10:36:52;3.00;;;1.95;;
31347;SDS011;21711;49.708;18.568;2023-05-10T10:39:20;2.08;;;1.58;;
31347;SDS011;21711;49.708;18.568;2023-05-10T10:41:52;1.58;;;1.02;;
31347;SDS011;21711;49.708;18.568;2023-05-10T10:47:04;2.22;;;1.42;;
31347;SDS011;21711;49.708;18.568;2023-05-10T10:49:52;0.82;;;0.82;;
31347;SDS011;21711;49.708;18.568;2023-05-10T10:52:38;2.63;;;1.20;;
31347;SDS011;21711;49.708;18.568;2023-05-10T10:55:10;1.15;;;1.02;;
31347;SDS011;21711;49.708;18.568;2023-05-10T11:00:36;2.75;;;1.30;;
31347;SDS011;21711;49.708;18.568;2023-05-10T11:03:10;3.63;;;1.10;;
31347;SDS011;21711;49.708;18.568;2023-05-10T11:05:48;1.10;;;1.00;;
31347;SDS011;21711;49.708;18.568;2023-05-10T11:08:27;1.10;;;1.02;;
31347;SDS011;21711;49.708;18.568;2023-05-10T11:13:30;1.90;;;0.95;;
31347;SDS011;21711;49.708;18.568;2023-05-10T11:16:14;2.83;;;1.35;;
31347;SDS011;21711;49.708;18.568;2023-05-10T11:19:03;1.30;;;1.20;;
31347;SDS011;21711;49.708;18.568;2023-05-10T11:21:34;1.50;;;1.20;;
31347;SDS011;21711;49.708;18.568;2023-05-10T11:24:38;1.30;;;1.20;;
31347;SDS011;21711;49.708;18.568;2023-05-10T11:27:06;3.08;;;1.00;;
31347;SDS011;21711;49.708;18.568;2023-05-10T11:29:33;1.52;;;1.17;;
31347;SDS011;21711;49.708;18.568;2023-05-10T11:32:00;4.18;;;1.02;;
31347;SDS011;21711;49.708;18.568;2023-05-10T11:34:29;2.08;;;1.10;;
31347;SDS011;21711;49.708;18.568;2023-05-10T11:37:00;1.67;;;0.98;;
31347;SDS011;21711;49.708;18.568;2023-05-10T11:39:28;3.05;;;1.02;;
31347;SDS011;21711;49.708;18.568;2023-05-10T11:42:16;1.15;;;0.77;;
31347;SDS011;21711;49.708;18.568;2023-05-10T11:44:45;1.42;;;0.90;;
31347;SDS011;21711;49.708;18.568;2023-05-10T11:47:14;1.80;;;0.90;;
31347;SDS011;21711;49.708;18.568;2023-05-10T11:49:45;2.55;;;1.20;;
31347;SDS011;21711;49.708;18.568;2023-05-10T11:52:14;3.47;;;1.30;;
31347;SDS011;21711;49.708;18.568;2023-05-10T11:55:00;1.85;;;1.10;;
31347;SDS011;21711;49.708;18.568;2023-05-10T11:57:27;2.22;;;1.00;;
31347;SDS011;21711;49.708;18.568;2023-05-10T11:59:56;1.98;;;1.20;;
31347;SDS011;21711;49.708;18.568;2023-05-10T12:02:23;3.03;;;1.10;;
31347;SDS011;21711;49.708;18.568;2023-05-10T12:04:51;1.23;;;1.13;;
31347;SDS011;21711;49.708;18.568;2023-05-10T12:07:19;4.95;;;0.95;;
31347;SDS011;21711;49.708;18.568;2023-05-10T12:12:38;1.30;;;0.90;;
31347;SDS011;21711;49.708;18.568;2023-05-10T12:15:21;2.97;;;0.90;;
31347;SDS011;21711;49.708;18.568;2023-05-10T12:17:50;3.40;;;1.17;;
31347;SDS011;21711;49.708;18.568;2023-05-10T12:20:19;2.33;;;1.15;;
31347;SDS011;21711;49.708;18.568;2023-05-10T12:22:52;2.83;;;1.02;;
31347;SDS011;21711;49.708;18.568;2023-05-10T12:25:29;1.98;;;1.00;;
31347;SDS011;21711;49.708;18.568;2023-05-10T12:28:08;1.27;;;1.08;;
31347;SDS011;21711;49.708;18.568;2023-05-10T12:30:36;1.10;;;0.80;;
31347;SDS011;21711;49.708;18.568;2023-05-10T12:33:08;4.63;;;1.00;;
31347;SDS011;21711;49.708;18.568;2023-05-10T12:35:44;2.15;;;1.10;;
31347;SDS011;21711;49.708;18.568;2023-05-10T12:38:35;1.00;;;0.85;;
31347;SDS011;21711;49.708;18.568;2023-05-10T12:41:06;1.42;;;0.90;;
31347;SDS011;21711;49.708;18.568;2023-05-10T12:43:39;1.20;;;0.98;;
31347;SDS011;21711;49.708;18.568;2023-05-10T12:46:10;2.28;;;0.90;;
31347;SDS011;21711;49.708;18.568;2023-05-10T12:48:40;1.63;;;1.00;;
31347;SDS011;21711;49.708;18.568;2023-05-10T12:51:09;3.97;;;1.15;;
31347;SDS011;21711;49.708;18.568;2023-05-10T12:53:38;1.58;;;1.00;;
31347;SDS011;21711;49.708;18.568;2023-05-10T12:56:10;4.28;;;2.08;;
31347;SDS011;21711;49.708;18.568;2023-05-10T12:58:38;1.13;;;1.00;;
31347;SDS011;21711;49.708;18.568;2023-05-10T13:01:05;1.02;;;0.90;;
31347;SDS011;21711;49.708;18.568;2023-05-10T13:03:32;2.65;;;1.15;;
31347;SDS011;21711;49.708;18.568;2023-05-10T13:06:00;0.98;;;0.80;;
31347;SDS011;21711;49.708;18.568;2023-05-10T13:08:27;1.60;;;0.98;;
31347;SDS011;21711;49.708;18.568;2023-05-10T13:11:00;1.02;;;0.90;;
31347;SDS011;21711;49.708;18.568;2023-05-10T13:13:29;2.35;;;1.00;;
31347;SDS011;21711;49.708;18.568;2023-05-10T13:15:56;2.00;;;1.10;;
31347;SDS011;21711;49.708;18.568;2023-05-10T13:18:23;1.70;;;1.15;;
31347;SDS011;21711;49.708;18.568;2023-05-10T13:20:51;1.40;;;1.10;;
31347;SDS011;21711;49.708;18.568;2023-05-10T13:23:18;2.05;;;0.90;;
31347;SDS011;21711;49.708;18.568;2023-05-10T13:25:45;1.20;;;1.00;;
31347;SDS011;21711;49.708;18.568;2023-05-10T13:28:13;1.45;;;1.20;;
31347;SDS011;21711;49.708;18.568;2023-05-10T13:30:40;1.45;;;0.98;;
31347;SDS011;21711;49.708;18.568;2023-05-10T13:33:07;1.33;;;0.93;;
31347;SDS011;21711;49.708;18.568;2023-05-10T13:35:35;1.60;;;0.90;;
31347;SDS011;21711;49.708;18.568;2023-05-10T13:38:02;3.20;;;0.98;;
31347;SDS011;21711;49.708;18.568;2023-05-10T13:40:29;2.03;;;1.38;;
31347;SDS011;21711;49.708;18.568;2023-05-10T13:42:57;1.60;;;1.30;;
31347;SDS011;21711;49.708;18.568;2023-05-10T13:45:24;2.55;;;1.30;;
31347;SDS011;21711;49.708;18.568;2023-05-10T13:47:51;2.90;;;1.20;;
31347;SDS011;21711;49.708;18.568;2023-05-10T13:50:19;7.63;;;1.25;;
31347;SDS011;21711;49.708;18.568;2023-05-10T13:52:46;1.40;;;1.08;;
31347;SDS011;21711;49.708;18.568;2023-05-10T13:55:13;2.15;;;1.10;;
31347;SDS011;21711;49.708;18.568;2023-05-10T13:57:41;2.80;;;1.13;;
31347;SDS011;21711;49.708;18.568;2023-05-10T14:00:09;1.20;;;0.98;;
31347;SDS011;21711;49.708;18.568;2023-05-10T14:02:37;1.58;;;1.13;;
31347;SDS011;21711;49.708;18.568;2023-05-10T14:05:05;2.65;;;0.90;;
31347;SDS011;21711;49.708;18.568;2023-05-10T14:07:32;1.92;;;0.98;;
31347;SDS011;21711;49.708;18.568;2023-05-10T14:10:00;1.15;;;0.93;;
31347;SDS011;21711;49.708;18.568;2023-05-10T14:12:27;1.08;;;0.90;;
31347;SDS011;21711;49.708;18.568;2023-05-10T14:14:55;1.35;;;0.90;;
31347;SDS011;21711;49.708;18.568;2023-05-10T14:17:24;0.95;;;0.80;;
31347;SDS011;21711;49.708;18.568;2023-05-10T14:19:52;2.45;;;0.90;;
31347;SDS011;21711;49.708;18.568;2023-05-10T14:22:19;2.28;;;0.90;;
31347;SDS011;21711;49.708;18.568;2023-05-10T14:24:46;1.50;;;0.90;;
31347;SDS011;21711;49.708;18.568;2023-05-10T14:27:14;3.00;;;1.00;;
31347;SDS011;21711;49.708;18.568;2023-05-10T14:29:42;2.47;;;0.88;;
31347;SDS011;21711;49.708;18.568;2023-05-10T14:32:09;1.10;;;0.90;;
31347;SDS011;21711;49.708;18.568;2023-05-10T14:34:36;2.47;;;1.00;;
31347;SDS011;21711;49.708;18.568;2023-05-10T14:37:04;0.80;;;0.68;;
31347;SDS011;21711;49.708;18.568;2023-05-10T14:39:31;1.13;;;0.90;;
31347;SDS011;21711;49.708;18.568;2023-05-10T14:41:59;1.60;;;0.98;;
31347;SDS011;21711;49.708;18.568;2023-05-10T14:44:26;4.30;;;1.15;;
31347;SDS011;21711;49.708;18.568;2023-05-10T14:46:54;1.67;;;0.80;;
31347;SDS011;21711;49.708;18.568;2023-05-10T14:49:22;3.15;;;1.00;;
31347;SDS011;21711;49.708;18.568;2023-05-10T14:51:51;1.42;;;0.80;;
31347;SDS011;21711;49.708;18.568;2023-05-10T14:54:19;1.35;;;1.10;;
31347;SDS011;21711;49.708;18.568;2023-05-10T14:56:46;1.20;;;0.80;;
31347;SDS011;21711;49.708;18.568;2023-05-10T14:59:16;2.38;;;0.73;;
31347;SDS011;21711;49.708;18.568;2023-05-10T15:01:44;1.58;;;1.10;;
31347;SDS011;21711;49.708;18.568;2023-05-10T15:04:12;3.92;;;0.88;;
31347;SDS011;21711;49.708;18.568;2023-05-10T15:06:42;1.75;;;0.85;;
31347;SDS011;21711;49.708;18.568;2023-05-10T15:09:10;2.50;;;0.77;;
31347;SDS011;21711;49.708;18.568;2023-05-10T15:11:37;3.92;;;0.77;;
31347;SDS011;21711;49.708;18.568;2023-05-10T15:14:04;2.58;;;0.80;;
31347;SDS011;21711;49.708;18.568;2023-05-10T15:16:32;2.88;;;0.88;;
31347;SDS011;21711;49.708;18.568;2023-05-10T15:19:01;0.80;;;0.73;;
31347;SDS011;21711;49.708;18.568;2023-05-10T15:21:29;1.50;;;0.93;;